createdAt,value
2018-05-06T00:01:36.144Z,16.63
2018-05-06T00:04:02.435Z,16.13
2018-05-06T00:06:28.656Z,15.20
2018-05-06T00:08:54.887Z,16.50
2018-05-06T00:11:21.096Z,16.83
2018-05-06T00:13:47.408Z,16.07
2018-05-06T00:16:13.640Z,16.83
2018-05-06T00:18:39.903Z,13.60
2018-05-06T00:21:06.106Z,15.07
2018-05-06T00:23:32.321Z,14.90
2018-05-06T00:25:58.553Z,14.67
2018-05-06T00:28:24.763Z,12.87
2018-05-06T00:30:51.011Z,13.00
2018-05-06T00:33:17.221Z,11.63
2018-05-06T00:35:43.450Z,11.73
2018-05-06T00:38:09.650Z,11.63
2018-05-06T00:40:35.872Z,11.70
2018-05-06T00:43:02.100Z,11.70
2018-05-06T00:45:28.324Z,10.57
2018-05-06T00:47:54.540Z,11.13
2018-05-06T00:50:20.763Z,10.33
2018-05-06T00:52:47.863Z,10.60
2018-05-06T00:55:14.089Z,9.17
2018-05-06T00:57:40.340Z,9.47
2018-05-06T01:00:06.582Z,9.23
2018-05-06T01:02:32.791Z,10.60
2018-05-06T01:04:59.026Z,9.33
2018-05-06T01:07:25.278Z,9.50
2018-05-06T01:09:51.866Z,9.13
2018-05-06T01:12:18.050Z,9.97
2018-05-06T01:14:44.289Z,9.80
2018-05-06T01:17:10.508Z,9.93
2018-05-06T01:19:36.751Z,9.60
2018-05-06T01:22:02.980Z,9.57
2018-05-06T01:24:29.213Z,9.93
2018-05-06T01:26:56.047Z,9.17
2018-05-06T01:29:22.284Z,9.47
2018-05-06T01:31:48.516Z,9.20
2018-05-06T01:34:14.724Z,8.70
2018-05-06T01:36:41.634Z,8.83
2018-05-06T01:39:07.831Z,9.00
2018-05-06T01:41:34.061Z,9.50
2018-05-06T01:44:00.266Z,9.13
2018-05-06T01:46:26.489Z,8.50
2018-05-06T01:48:52.687Z,8.97
2018-05-06T01:51:19.902Z,8.93
2018-05-06T01:53:46.104Z,8.93
2018-05-06T01:56:12.352Z,8.73
2018-05-06T01:58:38.577Z,8.67
2018-05-06T02:01:04.808Z,8.93
2018-05-06T02:03:31.020Z,7.43
2018-05-06T02:05:57.279Z,8.27
2018-05-06T02:08:23.492Z,9.37
2018-05-06T02:10:49.714Z,9.83
2018-05-06T02:13:15.926Z,9.10
2018-05-06T02:15:42.165Z,7.83
2018-05-06T02:18:08.400Z,8.10
2018-05-06T02:20:34.627Z,9.07
2018-05-06T02:23:00.835Z,8.50
2018-05-06T02:25:27.081Z,7.90
2018-05-06T02:27:53.288Z,8.80
2018-05-06T02:30:19.533Z,8.10
2018-05-06T02:32:45.750Z,7.87
2018-05-06T02:35:12.009Z,7.37
2018-05-06T02:37:38.242Z,7.43
2018-05-06T02:40:05.256Z,8.80
2018-05-06T02:42:31.501Z,8.43
2018-05-06T02:44:57.703Z,7.87
2018-05-06T02:47:23.934Z,7.97
2018-05-06T02:49:50.137Z,7.87
2018-05-06T02:52:16.770Z,8.60
2018-05-06T02:54:42.997Z,7.67
2018-05-06T02:57:09.217Z,8.13
2018-05-06T02:59:35.836Z,7.40
2018-05-06T03:02:02.125Z,7.87
2018-05-06T03:04:28.331Z,7.33
2018-05-06T03:06:54.544Z,6.20
2018-05-06T03:09:21.122Z,7.53
2018-05-06T03:11:47.346Z,8.47
2018-05-06T03:14:13.561Z,7.30
2018-05-06T03:16:39.813Z,8.00
2018-05-06T03:19:06.001Z,9.10
2018-05-06T03:21:32.205Z,6.90
2018-05-06T03:23:59.438Z,6.60
2018-05-06T03:26:25.701Z,7.00
2018-05-06T03:28:51.915Z,7.37
2018-05-06T03:31:18.156Z,8.27
2018-05-06T03:33:44.357Z,7.30
2018-05-06T03:36:10.605Z,7.00
2018-05-06T03:38:36.801Z,7.03
2018-05-06T03:41:03.052Z,7.10
2018-05-06T03:43:29.313Z,6.90
2018-05-06T03:45:55.564Z,6.63
2018-05-06T03:48:21.767Z,6.73
2018-05-06T03:50:47.994Z,6.97
2018-05-06T03:53:14.221Z,7.00
2018-05-06T03:55:40.459Z,6.10
2018-05-06T03:58:18.881Z,6.13
2018-05-06T04:00:45.144Z,6.13
2018-05-06T04:03:11.399Z,6.60
2018-05-06T04:05:37.627Z,6.40
2018-05-06T04:08:03.864Z,7.47
2018-05-06T04:10:30.137Z,6.67
2018-05-06T04:12:56.363Z,6.00
2018-05-06T04:15:22.577Z,6.00
2018-05-06T04:17:48.859Z,6.57
2018-05-06T04:20:16.272Z,6.27
2018-05-06T04:22:42.473Z,6.63
2018-05-06T04:25:09.083Z,6.17
2018-05-06T04:27:35.314Z,6.47
2018-05-06T04:30:01.556Z,6.60
2018-05-06T04:32:27.836Z,6.80
2018-05-06T04:34:54.046Z,6.73
2018-05-06T04:37:20.300Z,6.50
2018-05-06T04:39:46.517Z,6.37
2018-05-06T04:42:12.764Z,6.17
2018-05-06T04:44:38.983Z,6.27
2018-05-06T04:47:05.813Z,6.17
2018-05-06T04:49:32.036Z,6.93
2018-05-06T04:51:58.256Z,6.63
2018-05-06T04:54:25.297Z,6.20
2018-05-06T04:56:51.512Z,5.90
2018-05-06T04:59:17.728Z,6.70
2018-05-06T05:01:43.983Z,6.43
2018-05-06T05:04:10.196Z,5.90
2018-05-06T05:06:36.399Z,6.20
2018-05-06T05:09:02.701Z,6.50
2018-05-06T05:11:28.901Z,6.37
2018-05-06T05:13:55.143Z,6.70
2018-05-06T05:16:21.379Z,6.37
2018-05-06T05:18:47.592Z,5.50
2018-05-06T05:21:13.809Z,6.03
2018-05-06T05:23:40.040Z,6.40
2018-05-06T05:26:06.246Z,5.30
2018-05-06T05:28:32.475Z,5.97
2018-05-06T05:30:58.699Z,5.47
2018-05-06T05:33:24.920Z,5.67
2018-05-06T05:35:51.494Z,4.93
2018-05-06T05:38:17.722Z,5.43
2018-05-06T05:40:43.922Z,5.03
2018-05-06T05:43:10.148Z,5.87
2018-05-06T05:45:36.412Z,5.13
2018-05-06T05:48:02.666Z,5.57
2018-05-06T05:50:28.872Z,5.30
2018-05-06T05:52:55.112Z,4.97
2018-05-06T05:55:21.322Z,5.00
2018-05-06T05:57:47.562Z,5.50
2018-05-06T06:00:13.780Z,5.40
2018-05-06T06:02:40.039Z,5.20
2018-05-06T06:05:06.247Z,5.03
2018-05-06T06:07:32.502Z,4.70
2018-05-06T06:09:58.729Z,4.80
2018-05-06T06:12:24.979Z,4.53
2018-05-06T06:14:51.201Z,4.77
2018-05-06T06:17:17.416Z,5.27
2018-05-06T06:19:43.628Z,5.13
2018-05-06T06:22:09.856Z,5.27
2018-05-06T06:24:36.120Z,5.30
2018-05-06T06:27:02.326Z,4.80
2018-05-06T06:29:28.535Z,5.43
2018-05-06T06:31:54.795Z,5.63
2018-05-06T06:34:21.058Z,5.43
2018-05-06T06:36:47.245Z,5.83
2018-05-06T06:39:13.520Z,5.17
2018-05-06T06:41:39.736Z,5.37
2018-05-06T06:44:05.986Z,5.63
2018-05-06T06:46:32.220Z,5.67
2018-05-06T06:48:58.421Z,5.80
2018-05-06T06:51:24.662Z,5.60
2018-05-06T06:53:50.907Z,6.03
2018-05-06T06:56:17.145Z,6.43
2018-05-06T06:58:43.388Z,6.63
2018-05-06T07:01:09.630Z,6.60
2018-05-06T07:03:35.891Z,6.60
2018-05-06T07:06:02.181Z,5.83
2018-05-06T07:08:28.433Z,6.60
2018-05-06T07:10:55.207Z,6.10
2018-05-06T07:13:21.443Z,6.00
2018-05-06T07:15:47.647Z,6.00
2018-05-06T07:18:13.862Z,6.20
2018-05-06T07:20:40.447Z,6.70
2018-05-06T07:23:06.671Z,6.67
2018-05-06T07:25:32.902Z,6.10
2018-05-06T07:27:59.125Z,6.83
2018-05-06T07:30:25.375Z,6.33
2018-05-06T07:32:52.135Z,6.13
2018-05-06T07:35:18.441Z,6.63
2018-05-06T07:37:44.686Z,6.70
2018-05-06T07:40:10.891Z,7.20
2018-05-06T07:42:37.112Z,6.00
2018-05-06T07:45:03.455Z,7.93
2018-05-06T07:47:29.699Z,6.10
2018-05-06T07:49:55.965Z,7.90
2018-05-06T07:52:22.211Z,7.53
2018-05-06T07:54:48.448Z,8.17
2018-05-06T07:57:14.655Z,8.67
2018-05-06T07:59:40.907Z,9.30
2018-05-06T08:02:07.099Z,7.30
2018-05-06T08:04:33.353Z,7.83
2018-05-06T08:06:59.573Z,8.73
2018-05-06T08:09:25.832Z,8.80
2018-05-06T08:11:52.091Z,8.20
2018-05-06T08:14:18.711Z,7.90
2018-05-06T08:16:44.933Z,7.67
2018-05-06T08:19:11.194Z,7.40
2018-05-06T08:21:38.436Z,7.80
2018-05-06T08:24:05.092Z,8.73
2018-05-06T08:26:31.319Z,8.43
2018-05-06T08:28:57.898Z,8.13
2018-05-06T08:31:24.132Z,7.73
2018-05-06T08:33:50.345Z,7.23
2018-05-06T08:36:16.589Z,7.47
2018-05-06T08:38:42.815Z,8.00
2018-05-06T08:41:09.071Z,8.17
2018-05-06T08:43:35.283Z,6.47
2018-05-06T08:46:01.567Z,7.23
2018-05-06T08:48:27.808Z,6.97
2018-05-06T08:50:54.061Z,7.97
2018-05-06T08:53:20.285Z,7.50
2018-05-06T08:55:46.533Z,6.27
2018-05-06T08:58:12.765Z,6.40
2018-05-06T09:00:39.092Z,7.10
2018-05-06T09:03:05.327Z,7.20
2018-05-06T09:05:31.611Z,6.57
2018-05-06T09:07:57.842Z,7.20
2018-05-06T09:10:24.065Z,6.90
2018-05-06T09:12:50.300Z,6.37
2018-05-06T09:15:16.541Z,5.97
2018-05-06T09:17:42.767Z,6.37
2018-05-06T09:20:09.031Z,5.73
2018-05-06T09:22:35.243Z,6.43
2018-05-06T09:25:01.504Z,5.80
2018-05-06T09:27:27.746Z,5.67
2018-05-06T09:29:53.985Z,5.53
2018-05-06T09:32:20.302Z,5.50
2018-05-06T09:34:46.528Z,6.00
2018-05-06T09:37:12.788Z,6.17
2018-05-06T09:39:39.030Z,6.23
2018-05-06T09:42:05.288Z,5.30
2018-05-06T09:44:31.515Z,5.70
2018-05-06T09:46:57.775Z,5.30
2018-05-06T09:49:24.008Z,6.50
2018-05-06T09:51:50.235Z,4.93
2018-05-06T09:54:17.432Z,5.70
2018-05-06T09:56:43.673Z,5.93
2018-05-06T09:59:09.887Z,6.17
2018-05-06T10:01:36.136Z,5.60
2018-05-06T10:04:03.037Z,6.00
2018-05-06T10:06:29.336Z,5.30
2018-05-06T10:08:55.933Z,5.60
2018-05-06T10:11:22.173Z,5.97
2018-05-06T10:13:48.779Z,5.27
2018-05-06T10:16:15.029Z,6.13
2018-05-06T10:18:41.263Z,4.73
2018-05-06T10:21:07.548Z,5.10
2018-05-06T10:23:33.753Z,6.17
2018-05-06T10:26:00.610Z,5.17
2018-05-06T10:28:26.824Z,5.33
2018-05-06T10:30:53.069Z,5.30
2018-05-06T10:33:19.287Z,4.80
2018-05-06T10:35:45.505Z,5.13
2018-05-06T10:38:11.726Z,5.67
2018-05-06T10:40:38.366Z,5.20
2018-05-06T10:43:04.972Z,5.27
2018-05-06T10:45:31.217Z,5.10
2018-05-06T10:47:57.844Z,4.77
2018-05-06T10:50:24.214Z,4.80
2018-05-06T10:52:50.390Z,4.90
2018-05-06T10:55:17.645Z,5.00
2018-05-06T10:57:43.908Z,4.37
2018-05-06T11:00:10.142Z,4.30
2018-05-06T11:02:36.399Z,4.03
2018-05-06T11:05:03.370Z,3.83
2018-05-06T11:07:29.617Z,4.80
2018-05-06T11:09:55.842Z,4.87
2018-05-06T11:12:22.106Z,4.40
2018-05-06T11:14:48.337Z,4.87
2018-05-06T11:17:14.574Z,4.23
2018-05-06T11:19:40.860Z,3.87
2018-05-06T11:22:07.141Z,3.90
2018-05-06T11:24:33.373Z,3.90
2018-05-06T11:26:59.620Z,4.20
2018-05-06T11:29:25.838Z,4.20
2018-05-06T11:31:59.002Z,3.90
2018-05-06T11:34:25.231Z,4.60
2018-05-06T11:36:51.537Z,4.17
2018-05-06T11:39:17.748Z,3.67
2018-05-06T11:41:43.992Z,4.00
2018-05-06T11:44:10.211Z,4.47
2018-05-06T11:46:36.462Z,3.50
2018-05-06T11:49:03.044Z,4.07
2018-05-06T11:51:29.272Z,3.70
2018-05-06T11:53:55.492Z,3.30
2018-05-06T11:56:21.773Z,3.97
2018-05-06T11:58:48.050Z,3.50
2018-05-06T12:01:14.271Z,3.60
2018-05-06T12:03:40.507Z,3.87
2018-05-06T12:06:06.716Z,3.40
2018-05-06T12:08:32.967Z,3.47
2018-05-06T12:10:59.170Z,4.20
2018-05-06T12:13:25.403Z,3.80
2018-05-06T12:15:51.655Z,3.20
2018-05-06T12:18:17.895Z,3.70
2018-05-06T12:20:44.142Z,3.23
2018-05-06T12:23:10.406Z,3.40
2018-05-06T12:25:36.607Z,4.10
2018-05-06T12:28:03.217Z,3.20
2018-05-06T12:30:29.455Z,3.90
2018-05-06T12:32:55.711Z,3.43
2018-05-06T12:35:22.298Z,3.70
2018-05-06T12:37:48.545Z,3.80
2018-05-06T12:40:14.772Z,3.00
2018-05-06T12:42:41.026Z,3.10
2018-05-06T12:45:07.649Z,3.57
2018-05-06T12:47:33.933Z,3.23
2018-05-06T12:50:00.156Z,3.53
2018-05-06T12:52:26.392Z,3.40
2018-05-06T12:54:52.638Z,3.80
2018-05-06T12:57:18.889Z,3.63
2018-05-06T12:59:45.094Z,4.40
2018-05-06T13:02:11.309Z,3.17
2018-05-06T13:04:37.502Z,3.27
2018-05-06T13:07:03.777Z,4.10
2018-05-06T13:09:30.027Z,3.80
2018-05-06T13:11:56.286Z,3.10
2018-05-06T13:14:22.535Z,4.10
2018-05-06T13:16:48.751Z,2.97
2018-05-06T13:19:15.002Z,3.20
2018-05-06T13:21:41.248Z,3.30
2018-05-06T13:24:07.556Z,3.40
2018-05-06T13:26:33.759Z,3.53
2018-05-06T13:28:59.994Z,3.60
2018-05-06T13:31:26.274Z,3.37
2018-05-06T13:33:52.550Z,3.57
2018-05-06T13:36:18.839Z,3.70
2018-05-06T13:38:45.115Z,3.67
2018-05-06T13:41:11.375Z,4.10
2018-05-06T13:43:37.635Z,3.37
2018-05-06T13:46:03.851Z,3.40
2018-05-06T13:48:30.106Z,3.17
2018-05-06T13:50:56.335Z,3.33
2018-05-06T13:53:22.992Z,3.10
2018-05-06T13:55:49.213Z,3.60
2018-05-06T13:58:15.444Z,2.93
2018-05-06T14:00:42.448Z,3.13
2018-05-06T14:03:08.700Z,3.40
2018-05-06T14:05:34.951Z,3.53
2018-05-06T14:08:01.221Z,2.53
2018-05-06T14:10:27.411Z,2.87
2018-05-06T14:12:53.673Z,3.00
2018-05-06T14:15:19.894Z,2.87
2018-05-06T14:17:46.162Z,3.63
2018-05-06T14:20:12.741Z,2.87
2018-05-06T14:22:39.029Z,3.40
2018-05-06T14:25:05.229Z,2.70
2018-05-06T14:27:31.472Z,3.20
2018-05-06T14:29:57.728Z,2.57
2018-05-06T14:32:24.426Z,2.90
2018-05-06T14:34:50.704Z,3.00
2018-05-06T14:37:16.956Z,2.90
2018-05-06T14:39:43.186Z,2.60
2018-05-06T14:42:09.391Z,2.77
2018-05-06T14:44:35.639Z,2.97
2018-05-06T14:47:13.989Z,3.10
2018-05-06T14:49:40.249Z,2.60
2018-05-06T14:52:06.539Z,2.90
2018-05-06T14:54:32.789Z,3.23
2018-05-06T14:56:59.044Z,2.60
2018-05-06T14:59:25.289Z,3.00
2018-05-06T15:01:51.576Z,3.37
2018-05-06T15:04:17.835Z,2.60
2018-05-06T15:06:44.080Z,3.90
2018-05-06T15:09:10.343Z,3.20
2018-05-06T15:11:36.579Z,2.90
2018-05-06T15:14:02.883Z,2.57
2018-05-06T15:16:29.134Z,2.17
2018-05-06T15:18:55.445Z,2.70
2018-05-06T15:21:21.722Z,2.60
2018-05-06T15:23:47.943Z,2.60
2018-05-06T15:26:14.167Z,2.63
2018-05-06T15:28:40.387Z,2.13
2018-05-06T15:31:07.046Z,2.33
2018-05-06T15:33:33.828Z,2.17
2018-05-06T15:36:00.172Z,2.17
2018-05-06T15:38:26.480Z,2.47
2018-05-06T15:40:52.742Z,2.37
2018-05-06T15:43:19.009Z,2.50
2018-05-06T15:45:45.301Z,2.23
2018-05-06T15:48:11.568Z,2.80
2018-05-06T15:50:38.328Z,2.80
2018-05-06T15:53:04.486Z,2.57
2018-05-06T15:55:30.746Z,2.60
2018-05-06T15:57:56.990Z,2.33
2018-05-06T16:00:23.297Z,2.33
2018-05-06T16:03:01.804Z,2.63
2018-05-06T16:05:28.553Z,2.53
2018-05-06T16:07:54.770Z,3.03
2018-05-06T16:10:21.047Z,2.50
2018-05-06T16:12:47.254Z,2.63
2018-05-06T16:15:14.044Z,2.70
2018-05-06T16:17:40.287Z,2.50
2018-05-06T16:20:06.553Z,6.30
2018-05-06T16:22:32.861Z,6.20
2018-05-06T16:24:59.091Z,4.03
2018-05-06T16:27:25.357Z,2.70
2018-05-06T16:29:51.651Z,3.23
2018-05-06T16:32:17.940Z,2.77
2018-05-06T16:34:44.263Z,3.33
2018-05-06T16:37:10.506Z,2.50
2018-05-06T16:39:37.628Z,2.70
2018-05-06T16:42:03.866Z,2.63
2018-05-06T16:44:30.107Z,2.10
2018-05-06T16:46:56.399Z,2.20
2018-05-06T16:49:23.021Z,2.90
2018-05-06T16:51:49.304Z,2.33
2018-05-06T16:54:15.553Z,3.97
2018-05-06T16:56:41.801Z,2.80
2018-05-06T16:59:08.053Z,2.90
2018-05-06T17:01:34.313Z,2.80
2018-05-06T17:04:00.559Z,2.83
2018-05-06T17:06:26.843Z,2.50
2018-05-06T17:08:53.131Z,2.50
2018-05-06T17:11:19.465Z,2.10
2018-05-06T17:13:45.696Z,3.20
2018-05-06T17:16:11.928Z,2.30
2018-05-06T17:18:38.182Z,2.10
2018-05-06T17:21:04.896Z,2.33
2018-05-06T17:23:31.166Z,2.40
2018-05-06T17:25:58.412Z,2.40
2018-05-06T17:28:24.686Z,2.33
2018-05-06T17:30:50.989Z,1.60
2018-05-06T17:33:17.263Z,2.40
2018-05-06T17:35:44.418Z,2.70
2018-05-06T17:38:11.643Z,2.37
2018-05-06T17:40:38.501Z,2.30
2018-05-06T17:43:05.216Z,2.87
2018-05-06T17:45:31.483Z,1.77
2018-05-06T17:47:57.814Z,2.43
2018-05-06T17:50:24.144Z,2.27
2018-05-06T17:52:51.018Z,2.27
2018-05-06T17:55:17.397Z,2.53
2018-05-06T17:57:43.684Z,1.90
2018-05-06T18:00:09.973Z,2.70
2018-05-06T18:02:36.262Z,2.23
2018-05-06T18:05:02.614Z,2.47
2018-05-06T18:07:29.017Z,1.93
2018-05-06T18:09:55.266Z,2.13
2018-05-06T18:12:21.529Z,1.70
2018-05-06T18:14:47.824Z,2.20
2018-05-06T18:17:14.063Z,1.73
2018-05-06T18:19:40.423Z,2.27
2018-05-06T18:22:06.710Z,2.00
2018-05-06T18:24:33.003Z,2.20
2018-05-06T18:26:59.310Z,2.10
2018-05-06T18:29:25.752Z,2.07
2018-05-06T18:31:53.416Z,1.73
2018-05-06T18:34:20.066Z,1.90
2018-05-06T18:36:46.382Z,1.90
2018-05-06T18:39:12.675Z,2.23
2018-05-06T18:41:38.916Z,2.27
2018-05-06T18:44:05.273Z,1.80
2018-05-06T18:46:31.588Z,1.93
2018-05-06T18:48:58.384Z,2.07
2018-05-06T18:51:24.639Z,1.93
2018-05-06T18:53:50.884Z,2.60
2018-05-06T18:56:17.171Z,2.13
2018-05-06T18:58:43.540Z,1.63
2018-05-06T19:01:09.913Z,1.73
2018-05-06T19:03:36.233Z,1.90
2018-05-06T19:06:02.918Z,1.77
2018-05-06T19:08:29.158Z,1.73
2018-05-06T19:10:55.434Z,1.90
2018-05-06T19:13:21.710Z,1.90
2018-05-06T19:15:47.951Z,1.70
2018-05-06T19:18:14.200Z,1.70
2018-05-06T19:20:40.458Z,1.87
2018-05-06T19:23:06.697Z,2.07
2018-05-06T19:25:32.948Z,2.07
2018-05-06T19:27:59.258Z,2.07
2018-05-06T19:30:25.510Z,2.30
2018-05-06T19:32:51.786Z,2.03
2018-05-06T19:35:18.089Z,1.97
2018-05-06T19:37:44.429Z,1.90
2018-05-06T19:40:10.721Z,2.23
2018-05-06T19:42:36.932Z,2.40
2018-05-06T19:45:03.399Z,2.67
2018-05-06T19:47:29.709Z,2.23
2018-05-06T19:49:56.003Z,2.20
2018-05-06T19:52:22.624Z,2.13
2018-05-06T19:54:49.376Z,2.83
2018-05-06T19:57:15.671Z,2.30
2018-05-06T19:59:41.951Z,2.10
2018-05-06T20:02:09.238Z,2.43
2018-05-06T20:04:35.502Z,2.23
2018-05-06T20:07:01.764Z,2.17
2018-05-06T20:09:28.061Z,2.30
2018-05-06T20:11:54.323Z,2.67
2018-05-06T20:14:20.624Z,1.80
2018-05-06T20:16:46.929Z,2.10
2018-05-06T20:19:14.021Z,2.33
2018-05-06T20:21:41.221Z,2.23
2018-05-06T20:24:07.461Z,2.20
2018-05-06T20:26:33.699Z,1.77
2018-05-06T20:29:00.339Z,2.43
2018-05-06T20:31:27.198Z,2.37
2018-05-06T20:33:53.452Z,1.77
2018-05-06T20:36:19.742Z,2.23
2018-05-06T20:38:46.049Z,2.77
2018-05-06T20:41:12.336Z,2.00
2018-05-06T20:43:38.602Z,1.73
2018-05-06T20:46:04.851Z,2.60
2018-05-06T20:48:31.154Z,2.50
2018-05-06T20:50:57.413Z,2.43
2018-05-06T20:53:23.690Z,2.40
2018-05-06T20:55:49.928Z,2.00
2018-05-06T20:58:16.221Z,1.93
2018-05-06T21:00:42.441Z,2.00
2018-05-06T21:03:08.726Z,2.23
2018-05-06T21:05:34.971Z,2.43
2018-05-06T21:08:01.229Z,2.60
2018-05-06T21:10:27.921Z,2.50
2018-05-06T21:12:54.262Z,2.03
2018-05-06T21:15:20.546Z,2.40
2018-05-06T21:17:46.832Z,2.30
2018-05-06T21:20:13.116Z,2.00
2018-05-06T21:22:39.362Z,2.30
2018-05-06T21:25:05.716Z,2.67
2018-05-06T21:27:31.956Z,2.20
2018-05-06T21:29:58.247Z,2.00
2018-05-06T21:32:24.467Z,1.90
2018-05-06T21:34:50.742Z,2.23
2018-05-06T21:37:17.029Z,2.40
2018-05-06T21:39:43.386Z,2.20
2018-05-06T21:42:09.978Z,1.93
2018-05-06T21:44:36.264Z,1.87
2018-05-06T21:47:02.557Z,2.10
2018-05-06T21:49:28.815Z,2.20
2018-05-06T21:51:55.037Z,2.33
2018-05-06T21:54:21.280Z,2.33
2018-05-06T21:56:47.496Z,2.13
2018-05-06T21:59:14.420Z,2.50
2018-05-06T22:01:40.660Z,2.60
2018-05-06T22:04:06.962Z,2.30
2018-05-06T22:06:33.242Z,2.10
2018-05-06T22:08:59.461Z,1.90
2018-05-06T22:11:25.680Z,2.40
2018-05-06T22:13:51.952Z,2.37
2018-05-06T22:16:18.251Z,2.10
2018-05-06T22:18:44.520Z,2.30
2018-05-06T22:21:10.731Z,2.60
2018-05-06T22:23:37.372Z,3.00
2018-05-06T22:26:03.975Z,2.40
2018-05-06T22:28:30.218Z,2.80
2018-05-06T22:30:56.477Z,2.50
2018-05-06T22:33:23.710Z,2.50
2018-05-06T22:35:50.328Z,2.43
2018-05-06T22:38:16.575Z,2.80
2018-05-06T22:40:42.843Z,2.17
2018-05-06T22:43:09.075Z,1.77
2018-05-06T22:45:35.310Z,2.60
2018-05-06T22:48:01.531Z,2.40
2018-05-06T22:50:27.761Z,2.20
2018-05-06T22:52:54.000Z,2.27
2018-05-06T22:55:20.237Z,2.30
2018-05-06T22:57:46.464Z,2.50
2018-05-06T23:00:12.741Z,2.70
2018-05-06T23:02:39.328Z,2.50
2018-05-06T23:05:05.584Z,3.50
2018-05-06T23:07:31.847Z,2.87
2018-05-06T23:09:58.175Z,2.70
2018-05-06T23:12:24.404Z,2.43
2018-05-06T23:14:50.630Z,2.00
2018-05-06T23:17:16.860Z,2.03
2018-05-06T23:19:43.105Z,2.20
2018-05-06T23:22:09.322Z,2.13
2018-05-06T23:24:35.584Z,2.63
2018-05-06T23:27:01.799Z,2.27
2018-05-06T23:29:28.057Z,2.40
2018-05-06T23:31:54.274Z,3.00
2018-05-06T23:34:20.498Z,2.57
2018-05-06T23:36:46.723Z,2.20
2018-05-06T23:39:12.972Z,2.50
2018-05-06T23:41:39.221Z,2.43
2018-05-06T23:44:05.845Z,2.00
2018-05-06T23:46:32.100Z,2.20
2018-05-06T23:48:58.690Z,2.90
2018-05-06T23:51:24.928Z,2.67
2018-05-06T23:53:51.819Z,2.07
2018-05-06T23:56:18.077Z,2.93
2018-05-06T23:58:44.329Z,2.17
